KLDJ

Details ICAO KLDJ (LDJ)
Name LINDEN
Region United States
Timezone America/New_York (UTC-5.0)
Plans Departing 30
Arriving 15
Stats Elevation 23 ft / 7 m (AMSL)
Location 40.617449° -74.244595°
Runways 1
Magnetic Variation 12.754° W
Sunrise 2017-12-14 12:14:27 UTC / 2017-12-14 07:14:27 Local
Sunset 2017-12-14 21:31:52 UTC / 2017-12-14 16:31:52 Local
Advertisement - Login to hide

Runways

ID Width Length Bearing (true) Bearing (mag) Surface Threshold Offset Overrun Length
09 98 ft / 30 m 4,131 ft / 1,259 m 75.60° 88.35° Asphalt 459 ft / 140 m 200 ft / 61 m
27 98 ft / 30 m 4,131 ft / 1,259 m 255.61° 268.36° Asphalt 545 ft / 166 m 200 ft / 61 m

Map

Weather


0- 5 10 15 20 25 30 35+ Temperature / ° C

Clouds and Precipitation
Forecast for 2017-12-14 06:00 UTC. Updated an hour ago

Ground ~20,000 ft ~40,000 ft Winds

METAR

KLDJ 140635Z AUTO 00000KT 2SM UP OVC006 M05/M06 A2962 RMK AO2 T10491065

TAF

Not found

Frequencies

Unicom 123.00 MHz CTAF/UNICOM
Approach 135.35 MHz NEW YORK APP
Departure 126.70 MHz NEW YORK DEP
Clearance 128.35 MHz NEWARK CLNC DEL
Departure 119.20 MHz NEW YORK DEP
Warning: Do not use this data for real-world aviation or navigation. No guarantee of current accuracy is given.